Terminal Aerodrome Forecast
Issued by NWS

Home | Current Version | Previous Version | Text Only | Print | Product List | Glossary On
Versions: 1 2 3 4 5 6 7 8 9 10 11 12 13 14
000
FTUS46 KPDT 220100 AAA
TAFBDN
TAF AMD
KBDN 220113Z 2201/2224 33008KT P6SM BKN140 OVC250
      TEMPO 2201/2204 -SHRA
     FM220400 VRB06KT P6SM OVC100
     FM221000 VRB05KT P6SM BKN100 OVC150=

USA.gov is the U.S. government's official web portal to all federal, state and local government web resources and services.